sensor_id;sensor_type;location;lat;lon;timestamp;temperature;humidity
54614;DHT22;40514;52.758;6.360;2022-11-21T00:01:27;2.90;99.90
54614;DHT22;40514;52.758;6.360;2022-11-21T00:03:53;2.90;99.90
54614;DHT22;40514;52.758;6.360;2022-11-21T00:06:18;2.90;99.90
54614;DHT22;40514;52.758;6.360;2022-11-21T00:08:45;3.00;99.90
54614;DHT22;40514;52.758;6.360;2022-11-21T00:11:10;3.00;99.90
54614;DHT22;40514;52.758;6.360;2022-11-21T00:13:36;3.00;99.90
54614;DHT22;40514;52.758;6.360;2022-11-21T00:16:04;3.00;99.90
54614;DHT22;40514;52.758;6.360;2022-11-21T00:18:30;3.00;99.90
54614;DHT22;40514;52.758;6.360;2022-11-21T00:20:55;3.00;99.90
54614;DHT22;40514;52.758;6.360;2022-11-21T00:23:21;2.90;99.90
54614;DHT22;40514;52.758;6.360;2022-11-21T00:25:46;2.90;99.90
54614;DHT22;40514;52.758;6.360;2022-11-21T00:28:12;2.90;99.90
54614;DHT22;40514;52.758;6.360;2022-11-21T00:30:37;2.90;99.90
54614;DHT22;40514;52.758;6.360;2022-11-21T00:33:03;2.90;99.90
54614;DHT22;40514;52.758;6.360;2022-11-21T00:35:29;2.90;99.90
54614;DHT22;40514;52.758;6.360;2022-11-21T00:37:55;2.90;99.90
54614;DHT22;40514;52.758;6.360;2022-11-21T00:40:21;2.90;99.90
54614;DHT22;40514;52.758;6.360;2022-11-21T00:42:46;2.90;99.90
54614;DHT22;40514;52.758;6.360;2022-11-21T00:45:12;2.90;99.90
54614;DHT22;40514;52.758;6.360;2022-11-21T00:47:37;2.90;99.90
54614;DHT22;40514;52.758;6.360;2022-11-21T00:50:03;2.90;99.90
54614;DHT22;40514;52.758;6.360;2022-11-21T00:52:29;2.90;99.90
54614;DHT22;40514;52.758;6.360;2022-11-21T00:54:54;3.00;99.90
54614;DHT22;40514;52.758;6.360;2022-11-21T00:57:20;3.00;99.90
54614;DHT22;40514;52.758;6.360;2022-11-21T00:59:45;3.00;99.90
54614;DHT22;40514;52.758;6.360;2022-11-21T01:02:11;2.90;99.90
54614;DHT22;40514;52.758;6.360;2022-11-21T01:04:38;2.90;99.90
54614;DHT22;40514;52.758;6.360;2022-11-21T01:07:03;2.80;99.90
54614;DHT22;40514;52.758;6.360;2022-11-21T01:09:29;2.80;99.90
54614;DHT22;40514;52.758;6.360;2022-11-21T01:11:55;2.80;99.90
54614;DHT22;40514;52.758;6.360;2022-11-21T01:14:21;2.80;99.90
54614;DHT22;40514;52.758;6.360;2022-11-21T01:16:46;2.80;99.90
54614;DHT22;40514;52.758;6.360;2022-11-21T01:19:12;2.70;99.90
54614;DHT22;40514;52.758;6.360;2022-11-21T01:21:37;2.70;99.90
54614;DHT22;40514;52.758;6.360;2022-11-21T01:24:03;2.70;99.90
54614;DHT22;40514;52.758;6.360;2022-11-21T01:26:30;2.70;99.90
54614;DHT22;40514;52.758;6.360;2022-11-21T01:28:59;2.70;99.90
54614;DHT22;40514;52.758;6.360;2022-11-21T01:31:27;2.70;99.90
54614;DHT22;40514;52.758;6.360;2022-11-21T01:33:55;2.70;99.90
54614;DHT22;40514;52.758;6.360;2022-11-21T01:36:31;2.70;99.90
54614;DHT22;40514;52.758;6.360;2022-11-21T01:39:03;2.80;99.90
54614;DHT22;40514;52.758;6.360;2022-11-21T01:41:34;2.80;99.90
54614;DHT22;40514;52.758;6.360;2022-11-21T01:46:41;2.80;99.90
54614;DHT22;40514;52.758;6.360;2022-11-21T01:54:35;2.70;99.90
54614;DHT22;40514;52.758;6.360;2022-11-21T01:59:55;2.70;99.90
54614;DHT22;40514;52.758;6.360;2022-11-21T02:02:28;2.80;99.90
54614;DHT22;40514;52.758;6.360;2022-11-21T02:04:55;2.80;99.90
54614;DHT22;40514;52.758;6.360;2022-11-21T02:07:22;2.80;99.90
54614;DHT22;40514;52.758;6.360;2022-11-21T02:09:53;2.80;99.90
54614;DHT22;40514;52.758;6.360;2022-11-21T02:12:29;2.80;99.90
54614;DHT22;40514;52.758;6.360;2022-11-21T02:14:57;2.70;99.90
54614;DHT22;40514;52.758;6.360;2022-11-21T02:17:25;2.70;99.90
54614;DHT22;40514;52.758;6.360;2022-11-21T02:19:56;2.70;99.90
54614;DHT22;40514;52.758;6.360;2022-11-21T02:25:11;2.70;99.90
54614;DHT22;40514;52.758;6.360;2022-11-21T02:27:38;2.70;99.90
54614;DHT22;40514;52.758;6.360;2022-11-21T02:30:04;2.70;99.90
54614;DHT22;40514;52.758;6.360;2022-11-21T02:32:42;2.80;99.90
54614;DHT22;40514;52.758;6.360;2022-11-21T02:35:15;2.90;99.90
54614;DHT22;40514;52.758;6.360;2022-11-21T02:37:42;2.80;99.90
54614;DHT22;40514;52.758;6.360;2022-11-21T02:40:16;2.80;99.90
54614;DHT22;40514;52.758;6.360;2022-11-21T02:42:48;2.70;99.90
54614;DHT22;40514;52.758;6.360;2022-11-21T02:45:26;2.70;99.90
54614;DHT22;40514;52.758;6.360;2022-11-21T02:47:56;2.70;99.90
54614;DHT22;40514;52.758;6.360;2022-11-21T02:50:25;2.70;99.90
54614;DHT22;40514;52.758;6.360;2022-11-21T02:52:51;2.60;99.90
54614;DHT22;40514;52.758;6.360;2022-11-21T02:55:16;2.60;99.90
54614;DHT22;40514;52.758;6.360;2022-11-21T02:57:42;2.60;99.90
54614;DHT22;40514;52.758;6.360;2022-11-21T03:00:09;2.60;99.90
54614;DHT22;40514;52.758;6.360;2022-11-21T03:02:35;2.60;99.90
54614;DHT22;40514;52.758;6.360;2022-11-21T03:05:02;2.60;99.90
54614;DHT22;40514;52.758;6.360;2022-11-21T03:07:29;2.60;99.90
54614;DHT22;40514;52.758;6.360;2022-11-21T03:09:55;2.70;99.90
54614;DHT22;40514;52.758;6.360;2022-11-21T03:12:20;2.60;99.90
54614;DHT22;40514;52.758;6.360;2022-11-21T03:14:46;2.50;99.90
54614;DHT22;40514;52.758;6.360;2022-11-21T03:17:11;2.40;99.90
54614;DHT22;40514;52.758;6.360;2022-11-21T03:19:37;2.40;99.90
54614;DHT22;40514;52.758;6.360;2022-11-21T03:22:02;2.40;99.90
54614;DHT22;40514;52.758;6.360;2022-11-21T03:24:28;2.40;99.90
54614;DHT22;40514;52.758;6.360;2022-11-21T03:26:54;2.40;99.90
54614;DHT22;40514;52.758;6.360;2022-11-21T03:29:19;2.40;99.90
54614;DHT22;40514;52.758;6.360;2022-11-21T03:31:45;2.40;99.90
54614;DHT22;40514;52.758;6.360;2022-11-21T03:34:10;2.40;99.90
54614;DHT22;40514;52.758;6.360;2022-11-21T03:36:36;2.30;99.90
54614;DHT22;40514;52.758;6.360;2022-11-21T03:39:02;2.30;99.90
54614;DHT22;40514;52.758;6.360;2022-11-21T03:41:27;2.20;99.90
54614;DHT22;40514;52.758;6.360;2022-11-21T03:44:00;2.30;99.90
54614;DHT22;40514;52.758;6.360;2022-11-21T03:46:28;2.30;99.90
54614;DHT22;40514;52.758;6.360;2022-11-21T03:48:54;2.30;99.90
54614;DHT22;40514;52.758;6.360;2022-11-21T03:51:20;2.30;99.90
54614;DHT22;40514;52.758;6.360;2022-11-21T03:53:46;2.30;99.90
54614;DHT22;40514;52.758;6.360;2022-11-21T03:56:12;2.20;99.90
54614;DHT22;40514;52.758;6.360;2022-11-21T03:58:38;2.20;99.90
54614;DHT22;40514;52.758;6.360;2022-11-21T04:01:04;2.20;99.90
54614;DHT22;40514;52.758;6.360;2022-11-21T04:03:30;2.10;99.90
54614;DHT22;40514;52.758;6.360;2022-11-21T04:05:56;2.20;99.90
54614;DHT22;40514;52.758;6.360;2022-11-21T04:08:21;2.20;99.90
54614;DHT22;40514;52.758;6.360;2022-11-21T04:10:52;2.20;99.90
54614;DHT22;40514;52.758;6.360;2022-11-21T04:13:17;2.30;99.90
54614;DHT22;40514;52.758;6.360;2022-11-21T04:15:44;2.20;99.90
54614;DHT22;40514;52.758;6.360;2022-11-21T04:18:10;2.20;99.90
54614;DHT22;40514;52.758;6.360;2022-11-21T04:20:36;2.10;99.90
54614;DHT22;40514;52.758;6.360;2022-11-21T04:23:01;2.00;99.90
54614;DHT22;40514;52.758;6.360;2022-11-21T04:25:30;1.90;99.90
54614;DHT22;40514;52.758;6.360;2022-11-21T04:27:57;1.90;99.90
54614;DHT22;40514;52.758;6.360;2022-11-21T04:30:23;1.80;99.90
54614;DHT22;40514;52.758;6.360;2022-11-21T04:32:52;1.70;99.90
54614;DHT22;40514;52.758;6.360;2022-11-21T04:35:18;1.50;99.90
54614;DHT22;40514;52.758;6.360;2022-11-21T04:37:43;1.40;99.90
54614;DHT22;40514;52.758;6.360;2022-11-21T04:40:10;1.40;99.90
54614;DHT22;40514;52.758;6.360;2022-11-21T04:42:35;1.30;99.90
54614;DHT22;40514;52.758;6.360;2022-11-21T04:45:01;1.30;99.90
54614;DHT22;40514;52.758;6.360;2022-11-21T04:47:27;1.30;99.90
54614;DHT22;40514;52.758;6.360;2022-11-21T04:49:52;1.20;99.90
54614;DHT22;40514;52.758;6.360;2022-11-21T04:52:18;1.20;99.90
54614;DHT22;40514;52.758;6.360;2022-11-21T04:54:44;1.10;99.90
54614;DHT22;40514;52.758;6.360;2022-11-21T04:57:09;1.10;99.90
54614;DHT22;40514;52.758;6.360;2022-11-21T04:59:35;1.10;99.90
54614;DHT22;40514;52.758;6.360;2022-11-21T05:02:02;1.00;99.90
54614;DHT22;40514;52.758;6.360;2022-11-21T05:04:28;1.00;99.90
54614;DHT22;40514;52.758;6.360;2022-11-21T05:06:53;1.00;99.90
54614;DHT22;40514;52.758;6.360;2022-11-21T05:09:19;0.90;99.90
54614;DHT22;40514;52.758;6.360;2022-11-21T05:11:44;1.00;99.90
54614;DHT22;40514;52.758;6.360;2022-11-21T05:14:28;1.00;99.90
54614;DHT22;40514;52.758;6.360;2022-11-21T05:16:54;1.00;99.90
54614;DHT22;40514;52.758;6.360;2022-11-21T05:19:19;1.00;99.90
54614;DHT22;40514;52.758;6.360;2022-11-21T05:21:45;1.10;99.90
54614;DHT22;40514;52.758;6.360;2022-11-21T05:24:10;1.10;99.90
54614;DHT22;40514;52.758;6.360;2022-11-21T05:26:36;1.10;99.90
54614;DHT22;40514;52.758;6.360;2022-11-21T05:29:02;1.10;99.90
54614;DHT22;40514;52.758;6.360;2022-11-21T05:31:28;1.10;99.90
54614;DHT22;40514;52.758;6.360;2022-11-21T05:33:54;1.10;99.90
54614;DHT22;40514;52.758;6.360;2022-11-21T05:36:19;1.10;99.90
54614;DHT22;40514;52.758;6.360;2022-11-21T05:38:45;1.20;99.90
54614;DHT22;40514;52.758;6.360;2022-11-21T05:41:10;1.20;99.90
54614;DHT22;40514;52.758;6.360;2022-11-21T05:43:36;1.20;99.90
54614;DHT22;40514;52.758;6.360;2022-11-21T05:46:23;1.20;99.90
54614;DHT22;40514;52.758;6.360;2022-11-21T05:48:49;1.10;99.90
54614;DHT22;40514;52.758;6.360;2022-11-21T05:51:16;1.00;99.90
54614;DHT22;40514;52.758;6.360;2022-11-21T05:53:42;1.00;99.90
54614;DHT22;40514;52.758;6.360;2022-11-21T05:56:10;0.90;99.90
54614;DHT22;40514;52.758;6.360;2022-11-21T05:58:36;0.90;99.90
54614;DHT22;40514;52.758;6.360;2022-11-21T06:01:04;0.90;99.90
54614;DHT22;40514;52.758;6.360;2022-11-21T06:03:32;0.90;99.90
54614;DHT22;40514;52.758;6.360;2022-11-21T06:06:14;1.00;99.90
54614;DHT22;40514;52.758;6.360;2022-11-21T06:08:42;0.90;99.90
54614;DHT22;40514;52.758;6.360;2022-11-21T06:11:10;0.80;99.90
54614;DHT22;40514;52.758;6.360;2022-11-21T06:13:36;0.70;99.90
54614;DHT22;40514;52.758;6.360;2022-11-21T06:16:10;0.70;99.90
54614;DHT22;40514;52.758;6.360;2022-11-21T06:18:41;0.70;99.90
54614;DHT22;40514;52.758;6.360;2022-11-21T06:21:09;0.80;99.90
54614;DHT22;40514;52.758;6.360;2022-11-21T06:23:36;0.80;99.90
54614;DHT22;40514;52.758;6.360;2022-11-21T06:26:04;0.90;99.90
54614;DHT22;40514;52.758;6.360;2022-11-21T06:28:32;0.90;99.90
54614;DHT22;40514;52.758;6.360;2022-11-21T06:31:05;0.90;99.90
54614;DHT22;40514;52.758;6.360;2022-11-21T06:33:32;0.90;99.90
54614;DHT22;40514;52.758;6.360;2022-11-21T06:36:07;0.90;99.90
54614;DHT22;40514;52.758;6.360;2022-11-21T06:38:33;0.90;99.90
54614;DHT22;40514;52.758;6.360;2022-11-21T06:41:08;0.90;99.90
54614;DHT22;40514;52.758;6.360;2022-11-21T06:43:34;0.90;99.90
54614;DHT22;40514;52.758;6.360;2022-11-21T06:46:00;0.90;99.90
54614;DHT22;40514;52.758;6.360;2022-11-21T06:48:32;0.90;99.90
54614;DHT22;40514;52.758;6.360;2022-11-21T06:51:02;0.90;99.90
54614;DHT22;40514;52.758;6.360;2022-11-21T06:53:28;0.90;99.90
54614;DHT22;40514;52.758;6.360;2022-11-21T06:55:57;0.90;99.90
54614;DHT22;40514;52.758;6.360;2022-11-21T06:58:24;0.90;99.90
54614;DHT22;40514;52.758;6.360;2022-11-21T07:00:49;0.90;99.90
54614;DHT22;40514;52.758;6.360;2022-11-21T07:03:15;0.80;99.90
54614;DHT22;40514;52.758;6.360;2022-11-21T07:05:41;0.80;99.90
54614;DHT22;40514;52.758;6.360;2022-11-21T07:08:06;0.80;99.90
54614;DHT22;40514;52.758;6.360;2022-11-21T07:10:32;0.80;99.90
54614;DHT22;40514;52.758;6.360;2022-11-21T07:12:58;0.80;99.90
54614;DHT22;40514;52.758;6.360;2022-11-21T07:15:44;0.80;99.90
54614;DHT22;40514;52.758;6.360;2022-11-21T07:18:10;0.90;99.90
54614;DHT22;40514;52.758;6.360;2022-11-21T07:20:36;0.90;99.90
54614;DHT22;40514;52.758;6.360;2022-11-21T07:23:01;0.80;99.90
54614;DHT22;40514;52.758;6.360;2022-11-21T07:25:27;0.90;99.90
54614;DHT22;40514;52.758;6.360;2022-11-21T07:27:53;0.90;99.90
54614;DHT22;40514;52.758;6.360;2022-11-21T07:30:18;0.80;99.90
54614;DHT22;40514;52.758;6.360;2022-11-21T07:32:44;0.80;99.90
54614;DHT22;40514;52.758;6.360;2022-11-21T07:35:09;0.80;99.90
54614;DHT22;40514;52.758;6.360;2022-11-21T07:37:38;0.90;99.90
54614;DHT22;40514;52.758;6.360;2022-11-21T07:40:04;0.90;99.90
54614;DHT22;40514;52.758;6.360;2022-11-21T07:42:33;1.00;99.90
54614;DHT22;40514;52.758;6.360;2022-11-21T07:44:59;1.00;99.90
54614;DHT22;40514;52.758;6.360;2022-11-21T07:47:24;1.00;99.90
54614;DHT22;40514;52.758;6.360;2022-11-21T07:49:50;1.00;99.90
54614;DHT22;40514;52.758;6.360;2022-11-21T07:52:16;1.00;99.90
54614;DHT22;40514;52.758;6.360;2022-11-21T07:54:41;1.00;99.90
54614;DHT22;40514;52.758;6.360;2022-11-21T07:57:06;1.00;99.90
54614;DHT22;40514;52.758;6.360;2022-11-21T07:59:32;1.00;99.90
54614;DHT22;40514;52.758;6.360;2022-11-21T08:01:58;1.10;99.90
54614;DHT22;40514;52.758;6.360;2022-11-21T08:04:23;1.00;99.90
54614;DHT22;40514;52.758;6.360;2022-11-21T08:06:49;1.00;99.90
54614;DHT22;40514;52.758;6.360;2022-11-21T08:09:14;1.00;99.90
54614;DHT22;40514;52.758;6.360;2022-11-21T08:11:40;1.10;99.90
54614;DHT22;40514;52.758;6.360;2022-11-21T08:14:05;1.10;99.90
54614;DHT22;40514;52.758;6.360;2022-11-21T08:16:31;1.20;99.90
54614;DHT22;40514;52.758;6.360;2022-11-21T08:18:58;1.20;99.90
54614;DHT22;40514;52.758;6.360;2022-11-21T08:21:24;1.20;99.90
54614;DHT22;40514;52.758;6.360;2022-11-21T08:23:50;1.30;99.90
54614;DHT22;40514;52.758;6.360;2022-11-21T08:26:16;1.30;99.90
54614;DHT22;40514;52.758;6.360;2022-11-21T08:28:42;1.40;99.90
54614;DHT22;40514;52.758;6.360;2022-11-21T08:31:07;1.40;99.90
54614;DHT22;40514;52.758;6.360;2022-11-21T08:33:33;1.50;99.90
54614;DHT22;40514;52.758;6.360;2022-11-21T08:36:05;1.60;99.90
54614;DHT22;40514;52.758;6.360;2022-11-21T08:38:32;1.70;99.90
54614;DHT22;40514;52.758;6.360;2022-11-21T08:40:57;1.70;99.90
54614;DHT22;40514;52.758;6.360;2022-11-21T08:43:42;1.80;99.90
54614;DHT22;40514;52.758;6.360;2022-11-21T08:46:08;1.80;99.90
54614;DHT22;40514;52.758;6.360;2022-11-21T08:48:33;1.90;99.90
54614;DHT22;40514;52.758;6.360;2022-11-21T08:50:59;1.90;99.90
54614;DHT22;40514;52.758;6.360;2022-11-21T08:53:25;1.90;99.90
54614;DHT22;40514;52.758;6.360;2022-11-21T08:55:50;1.90;99.90
54614;DHT22;40514;52.758;6.360;2022-11-21T08:58:18;2.00;99.90
54614;DHT22;40514;52.758;6.360;2022-11-21T09:00:43;2.10;99.90
54614;DHT22;40514;52.758;6.360;2022-11-21T09:03:08;2.10;99.90
54614;DHT22;40514;52.758;6.360;2022-11-21T09:05:34;2.10;99.90
54614;DHT22;40514;52.758;6.360;2022-11-21T09:07:59;2.20;99.90
54614;DHT22;40514;52.758;6.360;2022-11-21T09:10:26;2.20;99.90
54614;DHT22;40514;52.758;6.360;2022-11-21T09:12:52;2.20;99.90
54614;DHT22;40514;52.758;6.360;2022-11-21T09:15:17;2.10;99.90
54614;DHT22;40514;52.758;6.360;2022-11-21T09:18:02;2.10;99.90
54614;DHT22;40514;52.758;6.360;2022-11-21T09:20:29;2.10;99.90
54614;DHT22;40514;52.758;6.360;2022-11-21T09:22:55;2.10;99.90
54614;DHT22;40514;52.758;6.360;2022-11-21T09:25:21;2.00;99.90
54614;DHT22;40514;52.758;6.360;2022-11-21T09:27:46;2.00;99.90
54614;DHT22;40514;52.758;6.360;2022-11-21T09:30:12;2.00;99.90
54614;DHT22;40514;52.758;6.360;2022-11-21T09:32:37;2.10;99.90
54614;DHT22;40514;52.758;6.360;2022-11-21T09:35:04;2.10;99.90
54614;DHT22;40514;52.758;6.360;2022-11-21T09:37:35;2.10;99.90
54614;DHT22;40514;52.758;6.360;2022-11-21T09:40:01;2.20;99.90
54614;DHT22;40514;52.758;6.360;2022-11-21T09:45:25;2.30;99.90
54614;DHT22;40514;52.758;6.360;2022-11-21T09:47:54;2.40;99.90
54614;DHT22;40514;52.758;6.360;2022-11-21T09:50:31;2.50;99.90
54614;DHT22;40514;52.758;6.360;2022-11-21T09:58:05;2.80;99.90
54614;DHT22;40514;52.758;6.360;2022-11-21T10:00:36;3.00;99.90
54614;DHT22;40514;52.758;6.360;2022-11-21T10:03:01;3.30;99.90
54614;DHT22;40514;52.758;6.360;2022-11-21T10:18:12;3.90;99.90
54614;DHT22;40514;52.758;6.360;2022-11-21T10:21:17;4.90;99.90
54614;DHT22;40514;52.758;6.360;2022-11-21T10:32:07;4.60;99.90
54614;DHT22;40514;52.758;6.360;2022-11-21T10:34:37;4.40;99.90
54614;DHT22;40514;52.758;6.360;2022-11-21T10:37:14;4.20;99.90
54614;DHT22;40514;52.758;6.360;2022-11-21T10:39:44;4.20;99.90
54614;DHT22;40514;52.758;6.360;2022-11-21T10:42:48;4.10;99.90
54614;DHT22;40514;52.758;6.360;2022-11-21T10:45:16;4.20;99.90
54614;DHT22;40514;52.758;6.360;2022-11-21T10:47:44;4.10;99.90
54614;DHT22;40514;52.758;6.360;2022-11-21T10:52:48;4.10;99.90
54614;DHT22;40514;52.758;6.360;2022-11-21T10:55:15;4.10;99.90
54614;DHT22;40514;52.758;6.360;2022-11-21T10:57:47;4.00;99.90
54614;DHT22;40514;52.758;6.360;2022-11-21T11:00:20;4.00;99.90
54614;DHT22;40514;52.758;6.360;2022-11-21T11:05:24;3.90;99.90
54614;DHT22;40514;52.758;6.360;2022-11-21T11:10:42;3.80;99.90
54614;DHT22;40514;52.758;6.360;2022-11-21T11:13:19;3.80;99.90
54614;DHT22;40514;52.758;6.360;2022-11-21T11:16:05;3.90;99.90
54614;DHT22;40514;52.758;6.360;2022-11-21T11:18:33;4.00;99.90
54614;DHT22;40514;52.758;6.360;2022-11-21T11:26:59;4.10;99.90
54614;DHT22;40514;52.758;6.360;2022-11-21T11:29:27;4.10;99.90
54614;DHT22;40514;52.758;6.360;2022-11-21T11:32:17;4.10;99.90
54614;DHT22;40514;52.758;6.360;2022-11-21T11:40:19;4.20;99.90
54614;DHT22;40514;52.758;6.360;2022-11-21T11:43:57;4.20;99.90
54614;DHT22;40514;52.758;6.360;2022-11-21T11:49:06;4.20;99.90
54614;DHT22;40514;52.758;6.360;2022-11-21T11:51:43;4.20;99.90
54614;DHT22;40514;52.758;6.360;2022-11-21T11:54:39;4.20;99.90
54614;DHT22;40514;52.758;6.360;2022-11-21T11:57:08;4.20;99.90
54614;DHT22;40514;52.758;6.360;2022-11-21T11:59:42;4.20;99.90
54614;DHT22;40514;52.758;6.360;2022-11-21T12:02:22;4.10;99.90
54614;DHT22;40514;52.758;6.360;2022-11-21T12:04:56;4.10;99.90
54614;DHT22;40514;52.758;6.360;2022-11-21T12:07:30;4.10;99.90
54614;DHT22;40514;52.758;6.360;2022-11-21T12:10:19;4.20;99.90
54614;DHT22;40514;52.758;6.360;2022-11-21T12:12:55;4.30;99.90
54614;DHT22;40514;52.758;6.360;2022-11-21T12:15:37;4.30;99.90
54614;DHT22;40514;52.758;6.360;2022-11-21T12:23:16;4.30;99.90
54614;DHT22;40514;52.758;6.360;2022-11-21T12:29:14;4.30;99.90
54614;DHT22;40514;52.758;6.360;2022-11-21T12:45:37;4.20;99.90
54614;DHT22;40514;52.758;6.360;2022-11-21T12:48:33;4.20;99.90
54614;DHT22;40514;52.758;6.360;2022-11-21T12:52:28;4.10;99.90
54614;DHT22;40514;52.758;6.360;2022-11-21T12:57:11;4.20;99.90
54614;DHT22;40514;52.758;6.360;2022-11-21T13:00:19;4.20;99.90
54614;DHT22;40514;52.758;6.360;2022-11-21T13:05:27;4.20;99.90
54614;DHT22;40514;52.758;6.360;2022-11-21T13:07:59;4.30;99.90
54614;DHT22;40514;52.758;6.360;2022-11-21T13:10:26;4.30;99.90
54614;DHT22;40514;52.758;6.360;2022-11-21T13:13:08;4.20;99.90
54614;DHT22;40514;52.758;6.360;2022-11-21T13:15:51;4.20;99.90
54614;DHT22;40514;52.758;6.360;2022-11-21T13:18:24;4.10;99.90
54614;DHT22;40514;52.758;6.360;2022-11-21T13:20:51;4.30;99.90
54614;DHT22;40514;52.758;6.360;2022-11-21T13:23:37;4.30;99.90
54614;DHT22;40514;52.758;6.360;2022-11-21T13:28:47;4.20;99.90
54614;DHT22;40514;52.758;6.360;2022-11-21T13:31:29;4.20;99.90
54614;DHT22;40514;52.758;6.360;2022-11-21T13:33:56;4.30;99.90
54614;DHT22;40514;52.758;6.360;2022-11-21T13:47:00;4.30;99.90
54614;DHT22;40514;52.758;6.360;2022-11-21T13:52:41;4.40;99.90
54614;DHT22;40514;52.758;6.360;2022-11-21T14:06:32;4.30;99.90
54614;DHT22;40514;52.758;6.360;2022-11-21T14:09:16;4.40;99.90
54614;DHT22;40514;52.758;6.360;2022-11-21T14:11:48;4.30;99.90
54614;DHT22;40514;52.758;6.360;2022-11-21T14:14:38;4.30;99.90
54614;DHT22;40514;52.758;6.360;2022-11-21T14:17:34;4.30;99.90
54614;DHT22;40514;52.758;6.360;2022-11-21T14:20:13;4.30;99.90
54614;DHT22;40514;52.758;6.360;2022-11-21T14:22:45;4.20;99.90
54614;DHT22;40514;52.758;6.360;2022-11-21T14:25:17;4.30;99.90
54614;DHT22;40514;52.758;6.360;2022-11-21T14:27:46;4.40;99.90
54614;DHT22;40514;52.758;6.360;2022-11-21T14:32:54;4.30;99.90
54614;DHT22;40514;52.758;6.360;2022-11-21T14:35:23;4.30;99.90
54614;DHT22;40514;52.758;6.360;2022-11-21T14:37:49;4.30;99.90
54614;DHT22;40514;52.758;6.360;2022-11-21T14:40:22;4.30;99.90
54614;DHT22;40514;52.758;6.360;2022-11-21T14:42:48;4.30;99.90
54614;DHT22;40514;52.758;6.360;2022-11-21T14:45:21;4.30;99.90
54614;DHT22;40514;52.758;6.360;2022-11-21T14:47:52;4.30;99.90
54614;DHT22;40514;52.758;6.360;2022-11-21T14:50:28;4.30;99.90
54614;DHT22;40514;52.758;6.360;2022-11-21T14:52:55;4.30;99.90
54614;DHT22;40514;52.758;6.360;2022-11-21T14:55:29;4.30;99.90
54614;DHT22;40514;52.758;6.360;2022-11-21T14:57:58;4.30;99.90
54614;DHT22;40514;52.758;6.360;2022-11-21T15:00:27;4.30;99.90
54614;DHT22;40514;52.758;6.360;2022-11-21T15:02:57;4.30;99.90
54614;DHT22;40514;52.758;6.360;2022-11-21T15:05:31;4.40;99.90
54614;DHT22;40514;52.758;6.360;2022-11-21T15:07:58;4.40;99.90
54614;DHT22;40514;52.758;6.360;2022-11-21T15:10:29;4.40;99.90
54614;DHT22;40514;52.758;6.360;2022-11-21T15:13:00;4.40;99.90
54614;DHT22;40514;52.758;6.360;2022-11-21T15:15:33;4.40;99.90
54614;DHT22;40514;52.758;6.360;2022-11-21T15:18:04;4.40;99.90
54614;DHT22;40514;52.758;6.360;2022-11-21T15:20:31;4.40;99.90
54614;DHT22;40514;52.758;6.360;2022-11-21T15:22:59;4.50;99.90
54614;DHT22;40514;52.758;6.360;2022-11-21T15:25:29;4.40;99.90
54614;DHT22;40514;52.758;6.360;2022-11-21T15:33:14;4.50;99.90
54614;DHT22;40514;52.758;6.360;2022-11-21T15:38:30;4.50;99.90
54614;DHT22;40514;52.758;6.360;2022-11-21T15:41:39;4.50;99.90
54614;DHT22;40514;52.758;6.360;2022-11-21T15:44:28;4.50;99.90
54614;DHT22;40514;52.758;6.360;2022-11-21T15:46:36;4.60;99.90
54614;DHT22;40514;52.758;6.360;2022-11-21T15:49:10;4.50;99.90
54614;DHT22;40514;52.758;6.360;2022-11-21T15:51:46;4.60;99.90
54614;DHT22;40514;52.758;6.360;2022-11-21T15:54:18;4.60;99.90
54614;DHT22;40514;52.758;6.360;2022-11-21T15:56:44;4.60;99.90
54614;DHT22;40514;52.758;6.360;2022-11-21T15:59:11;4.60;99.90
54614;DHT22;40514;52.758;6.360;2022-11-21T16:01:37;4.60;99.90
54614;DHT22;40514;52.758;6.360;2022-11-21T16:04:05;4.60;99.90
54614;DHT22;40514;52.758;6.360;2022-11-21T16:06:31;4.60;99.90
54614;DHT22;40514;52.758;6.360;2022-11-21T16:08:57;4.60;99.90
54614;DHT22;40514;52.758;6.360;2022-11-21T16:11:26;4.60;99.90
54614;DHT22;40514;52.758;6.360;2022-11-21T16:13:54;4.60;99.90
54614;DHT22;40514;52.758;6.360;2022-11-21T16:16:22;4.60;99.90
54614;DHT22;40514;52.758;6.360;2022-11-21T16:18:48;4.60;99.90
54614;DHT22;40514;52.758;6.360;2022-11-21T16:21:13;4.60;99.90
54614;DHT22;40514;52.758;6.360;2022-11-21T16:23:39;4.60;99.90
54614;DHT22;40514;52.758;6.360;2022-11-21T16:26:06;4.60;99.90
54614;DHT22;40514;52.758;6.360;2022-11-21T16:28:32;4.60;99.90
54614;DHT22;40514;52.758;6.360;2022-11-21T16:30:58;4.60;99.90
54614;DHT22;40514;52.758;6.360;2022-11-21T16:33:25;4.60;99.90
54614;DHT22;40514;52.758;6.360;2022-11-21T16:35:51;4.60;99.90
54614;DHT22;40514;52.758;6.360;2022-11-21T16:38:24;4.60;99.90
54614;DHT22;40514;52.758;6.360;2022-11-21T16:40:57;4.60;99.90
54614;DHT22;40514;52.758;6.360;2022-11-21T16:43:25;4.60;99.90
54614;DHT22;40514;52.758;6.360;2022-11-21T16:45:51;4.50;99.90
54614;DHT22;40514;52.758;6.360;2022-11-21T16:48:21;4.50;99.90
54614;DHT22;40514;52.758;6.360;2022-11-21T16:50:47;4.50;99.90
54614;DHT22;40514;52.758;6.360;2022-11-21T16:53:13;4.50;99.90
54614;DHT22;40514;52.758;6.360;2022-11-21T16:55:39;4.50;99.90
54614;DHT22;40514;52.758;6.360;2022-11-21T16:58:04;4.50;99.90
54614;DHT22;40514;52.758;6.360;2022-11-21T17:00:30;4.60;99.90
54614;DHT22;40514;52.758;6.360;2022-11-21T17:02:57;4.50;99.90
54614;DHT22;40514;52.758;6.360;2022-11-21T17:05:22;4.50;99.90
54614;DHT22;40514;52.758;6.360;2022-11-21T17:07:48;4.50;99.90
54614;DHT22;40514;52.758;6.360;2022-11-21T17:10:14;4.50;99.90
54614;DHT22;40514;52.758;6.360;2022-11-21T17:12:41;4.40;99.90
54614;DHT22;40514;52.758;6.360;2022-11-21T17:15:10;4.50;99.90
54614;DHT22;40514;52.758;6.360;2022-11-21T17:17:37;4.70;99.90
54614;DHT22;40514;52.758;6.360;2022-11-21T17:20:04;4.40;99.90
54614;DHT22;40514;52.758;6.360;2022-11-21T17:22:29;4.40;99.90
54614;DHT22;40514;52.758;6.360;2022-11-21T17:24:55;4.30;99.90
54614;DHT22;40514;52.758;6.360;2022-11-21T17:27:22;4.40;99.90
54614;DHT22;40514;52.758;6.360;2022-11-21T17:29:48;4.30;99.90
54614;DHT22;40514;52.758;6.360;2022-11-21T17:32:14;4.30;99.90
54614;DHT22;40514;52.758;6.360;2022-11-21T17:34:40;4.30;99.90
54614;DHT22;40514;52.758;6.360;2022-11-21T17:37:05;4.30;99.90
54614;DHT22;40514;52.758;6.360;2022-11-21T17:39:31;4.30;99.90
54614;DHT22;40514;52.758;6.360;2022-11-21T17:41:56;4.30;99.90
54614;DHT22;40514;52.758;6.360;2022-11-21T17:44:26;4.30;99.90
54614;DHT22;40514;52.758;6.360;2022-11-21T17:46:51;4.30;99.90
54614;DHT22;40514;52.758;6.360;2022-11-21T17:49:17;4.30;99.90
54614;DHT22;40514;52.758;6.360;2022-11-21T17:51:42;4.30;99.90
54614;DHT22;40514;52.758;6.360;2022-11-21T17:54:08;4.30;99.90
54614;DHT22;40514;52.758;6.360;2022-11-21T17:56:36;4.20;99.90
54614;DHT22;40514;52.758;6.360;2022-11-21T17:59:03;4.40;99.90
54614;DHT22;40514;52.758;6.360;2022-11-21T18:01:29;4.20;99.90
54614;DHT22;40514;52.758;6.360;2022-11-21T18:03:57;4.20;99.90
54614;DHT22;40514;52.758;6.360;2022-11-21T18:06:24;4.20;99.90
54614;DHT22;40514;52.758;6.360;2022-11-21T18:08:50;4.20;99.90